Time;durP1;ratioP1;P1;durP2;ratioP2;P2;SDS_P1;SDS_P2;PMS_P1;PMS_P2;Temp;Humidity;BMP_temperature;BMP_pressure;BME280_temperature;BME280_humidity;BME280_pressure;Samples;Min_cycle;Max_cycle;Signal;HPM_P1;HPM_P2
2020/12/09 00:00:07;;;;;;;1.70;0.20;;;3.30;99.90;;;;;;5024041;28;20205;-59
2020/12/09 00:02:32;;;;;;;1.70;0.20;;;3.30;99.90;;;;;;5028308;28;20194;-59
2020/12/09 00:04:58;;;;;;;1.70;0.20;;;3.30;99.90;;;;;;5026863;28;20198;-60
2020/12/09 00:07:23;;;;;;;1.90;0.20;;;3.30;99.90;;;;;;5031267;28;20193;-59
2020/12/09 00:09:49;;;;;;;1.70;0.20;;;3.30;99.90;;;;;;5028661;28;20182;-59
2020/12/09 00:12:15;;;;;;;1.70;0.20;;;3.30;99.90;;;;;;5031038;28;20221;-59
2020/12/09 00:14:41;;;;;;;1.70;0.20;;;3.40;99.90;;;;;;5030440;28;20193;-59
2020/12/09 00:17:07;;;;;;;1.70;0.20;;;3.30;99.90;;;;;;5028463;28;20178;-60
2020/12/09 00:19:32;;;;;;;1.80;0.30;;;3.30;99.90;;;;;;5031439;28;20535;-59
2020/12/09 00:21:58;;;;;;;1.63;0.20;;;3.30;99.90;;;;;;5029450;28;20205;-59
2020/12/09 00:24:23;;;;;;;2.70;2.50;;;3.30;99.90;;;;;;5029273;28;20187;-59
2020/12/09 00:26:49;;;;;;;1.70;0.20;;;3.40;99.90;;;;;;5027535;28;20182;-59
2020/12/09 00:29:14;;;;;;;1.90;0.53;;;3.40;99.90;;;;;;5028267;28;20194;-59
2020/12/09 00:31:40;;;;;;;1.70;0.20;;;3.40;99.90;;;;;;5030992;28;20210;-59
2020/12/09 00:34:06;;;;;;;1.70;0.30;;;3.50;99.90;;;;;;5038534;28;20181;-59
2020/12/09 00:36:32;;;;;;;3.75;1.27;;;3.40;99.90;;;;;;5025107;28;20182;-59
2020/12/09 00:38:57;;;;;;;1.70;0.20;;;3.40;99.90;;;;;;5029614;28;20189;-59
2020/12/09 00:41:26;;;;;;;1.70;0.20;;;3.40;99.90;;;;;;5030528;28;20198;-59
2020/12/09 00:43:51;;;;;;;2.78;1.15;;;3.30;99.90;;;;;;5026969;28;20207;-59
2020/12/09 00:46:23;;;;;;;3.70;2.57;;;3.20;99.90;;;;;;5030330;28;20221;-59
2020/12/09 00:48:49;;;;;;;1.73;0.20;;;3.20;99.90;;;;;;5035020;28;20450;-59
2020/12/09 00:51:25;;;;;;;1.70;0.20;;;3.30;99.90;;;;;;5032113;28;20218;-59
2020/12/09 00:53:52;;;;;;;1.70;0.20;;;3.40;99.90;;;;;;5034810;28;20190;-59
2020/12/09 00:56:18;;;;;;;2.45;2.25;;;3.50;99.90;;;;;;5028442;28;20194;-59
2020/12/09 00:58:43;;;;;;;2.57;1.20;;;3.60;99.90;;;;;;5030042;28;20186;-59
2020/12/09 01:01:10;;;;;;;1.70;0.20;;;3.60;99.90;;;;;;5036512;28;20226;-59
2020/12/09 01:03:36;;;;;;;1.70;0.30;;;3.50;99.90;;;;;;5029716;28;20312;-59
2020/12/09 01:06:04;;;;;;;1.70;0.20;;;3.50;99.90;;;;;;5025187;28;21252;-59
2020/12/09 01:08:30;;;;;;;4.40;2.00;;;3.50;99.90;;;;;;5036905;28;20645;-59
2020/12/09 01:10:57;;;;;;;1.90;0.82;;;3.40;99.90;;;;;;5036139;28;20255;-59
2020/12/09 01:13:23;;;;;;;7.95;4.18;;;3.40;99.90;;;;;;5032191;28;20185;-59
2020/12/09 01:15:49;;;;;;;1.70;0.20;;;3.30;99.90;;;;;;5034528;28;20177;-59
2020/12/09 01:18:15;;;;;;;4.67;2.53;;;3.30;99.90;;;;;;5027855;28;20554;-59
2020/12/09 01:20:40;;;;;;;5.73;4.43;;;3.30;99.90;;;;;;5032523;28;20540;-59
2020/12/09 01:23:06;;;;;;;5.73;3.93;;;3.30;99.90;;;;;;5033426;28;20232;-59
2020/12/09 01:25:32;;;;;;;1.70;0.20;;;3.30;99.90;;;;;;5031130;28;20553;-59
2020/12/09 01:28:01;;;;;;;1.80;0.30;;;3.20;99.90;;;;;;5032944;28;20194;-59
2020/12/09 01:30:28;;;;;;;1.70;0.20;;;3.30;99.90;;;;;;5029787;28;20296;-60
2020/12/09 01:32:54;;;;;;;1.70;0.20;;;3.40;99.90;;;;;;5031073;28;20185;-61
2020/12/09 01:35:19;;;;;;;7.47;3.10;;;3.40;99.90;;;;;;5032329;28;20178;-59
2020/12/09 01:37:45;;;;;;;3.50;1.80;;;3.40;99.90;;;;;;5033407;28;20177;-59
2020/12/09 01:40:12;;;;;;;1.70;0.20;;;3.30;99.90;;;;;;5032746;28;20202;-59
2020/12/09 01:42:37;;;;;;;5.93;5.45;;;3.40;99.90;;;;;;5031866;28;20233;-59
2020/12/09 01:45:04;;;;;;;1.73;0.20;;;3.50;99.90;;;;;;5028078;28;20631;-59
2020/12/09 01:47:29;;;;;;;3.15;2.90;;;3.50;99.90;;;;;;5030787;28;20191;-59
2020/12/09 01:49:56;;;;;;;1.80;0.30;;;3.50;99.90;;;;;;5034387;28;20320;-59
2020/12/09 01:52:22;;;;;;;1.70;0.20;;;3.50;99.90;;;;;;5029692;28;20301;-59
2020/12/09 01:54:55;;;;;;;1.73;0.30;;;3.50;99.90;;;;;;5030102;28;20178;-59
2020/12/09 01:57:22;;;;;;;5.30;3.05;;;3.50;99.90;;;;;;5032558;28;20182;-59
2020/12/09 01:59:48;;;;;;;1.70;0.20;;;3.50;99.90;;;;;;5030894;28;20236;-59
2020/12/09 02:02:14;;;;;;;1.70;0.20;;;3.50;99.90;;;;;;5030202;28;20190;-63
2020/12/09 02:04:41;;;;;;;4.70;3.25;;;3.50;99.90;;;;;;5032020;28;20499;-60
2020/12/09 02:07:07;;;;;;;1.70;0.20;;;3.50;99.90;;;;;;5029545;28;20216;-59
2020/12/09 02:09:33;;;;;;;2.83;2.00;;;3.40;99.90;;;;;;5030134;28;20720;-59
2020/12/09 02:11:58;;;;;;;1.70;0.20;;;3.40;99.90;;;;;;5031981;28;20874;-59
2020/12/09 02:14:25;;;;;;;1.70;0.30;;;3.50;99.90;;;;;;5030217;28;20299;-59
2020/12/09 02:16:56;;;;;;;3.08;1.30;;;3.50;99.90;;;;;;5030912;28;20273;-59
2020/12/09 02:19:22;;;;;;;1.75;0.32;;;3.50;99.90;;;;;;5027352;28;20232;-59
2020/12/09 02:21:48;;;;;;;2.10;0.60;;;3.40;99.90;;;;;;5029525;28;20206;-59
2020/12/09 02:24:14;;;;;;;1.70;0.20;;;3.40;99.90;;;;;;5033505;28;20186;-59
2020/12/09 02:26:45;;;;;;;1.73;0.30;;;3.50;99.90;;;;;;5030359;28;20194;-59
2020/12/09 02:29:11;;;;;;;1.70;0.20;;;3.50;99.90;;;;;;5028203;28;20194;-59
2020/12/09 02:31:37;;;;;;;1.70;0.20;;;3.60;99.90;;;;;;5032838;28;20221;-59
2020/12/09 02:34:03;;;;;;;1.70;0.20;;;3.60;99.90;;;;;;5028852;28;20194;-59
2020/12/09 02:36:29;;;;;;;1.70;0.20;;;3.70;99.90;;;;;;5030027;28;20304;-59
2020/12/09 02:38:55;;;;;;;1.80;0.30;;;3.70;99.90;;;;;;5026425;28;20205;-59
2020/12/09 02:41:21;;;;;;;1.70;0.20;;;3.70;99.90;;;;;;5028893;28;20221;-59
2020/12/09 02:43:46;;;;;;;1.70;0.20;;;3.80;99.90;;;;;;5029116;28;20190;-59
2020/12/09 02:46:12;;;;;;;1.70;0.20;;;3.70;99.90;;;;;;5030167;28;20186;-59
2020/12/09 02:48:37;;;;;;;1.70;0.20;;;3.70;99.90;;;;;;5028513;28;20186;-59
2020/12/09 02:51:03;;;;;;;1.70;0.20;;;3.70;99.90;;;;;;5029944;28;20213;-59
2020/12/09 02:53:29;;;;;;;1.70;0.20;;;3.70;99.90;;;;;;5026084;28;20274;-59
2020/12/09 02:55:55;;;;;;;1.70;0.20;;;3.70;99.90;;;;;;5029232;28;20200;-59
2020/12/09 02:58:21;;;;;;;1.70;0.20;;;3.60;99.90;;;;;;5030857;28;20621;-60
2020/12/09 03:00:46;;;;;;;1.70;0.20;;;3.60;99.90;;;;;;5044117;28;20277;-66
2020/12/09 03:03:12;;;;;;;1.70;0.20;;;3.60;99.90;;;;;;5047056;28;20194;-61
2020/12/09 03:05:37;;;;;;;1.70;0.20;;;3.60;99.90;;;;;;5049215;28;20210;-59
2020/12/09 03:08:03;;;;;;;1.70;0.20;;;3.60;99.90;;;;;;5044711;28;20580;-59
2020/12/09 03:10:29;;;;;;;1.70;0.20;;;3.60;99.90;;;;;;5039841;28;21256;-61
2020/12/09 03:12:55;;;;;;;1.77;0.32;;;3.50;99.90;;;;;;5035533;28;20439;-60
2020/12/09 03:15:20;;;;;;;1.70;0.20;;;3.50;99.90;;;;;;5030621;28;20190;-60
2020/12/09 03:17:46;;;;;;;2.20;1.50;;;3.60;99.90;;;;;;5030191;28;20691;-59
2020/12/09 03:20:11;;;;;;;1.70;0.20;;;3.60;99.90;;;;;;5034286;28;20221;-58
2020/12/09 03:22:37;;;;;;;2.33;1.70;;;3.60;99.90;;;;;;5032408;28;20432;-58
2020/12/09 03:25:02;;;;;;;1.70;0.20;;;3.60;99.90;;;;;;5032830;28;20707;-57
2020/12/09 03:27:28;;;;;;;1.70;0.20;;;3.50;99.90;;;;;;5033856;28;20196;-58
2020/12/09 03:29:54;;;;;;;1.70;0.20;;;3.60;99.90;;;;;;5028172;28;20186;-58
2020/12/09 03:32:19;;;;;;;1.70;0.20;;;3.60;99.90;;;;;;5030522;28;20213;-58
2020/12/09 03:34:45;;;;;;;1.70;0.20;;;3.60;99.90;;;;;;5031448;28;20194;-57
2020/12/09 03:37:10;;;;;;;1.70;0.20;;;3.60;99.90;;;;;;5029027;28;20261;-57
2020/12/09 03:39:36;;;;;;;1.70;0.20;;;3.60;99.90;;;;;;5032041;28;20185;-59
2020/12/09 03:42:01;;;;;;;3.50;2.83;;;3.40;99.90;;;;;;5027168;28;20213;-58
2020/12/09 03:44:27;;;;;;;1.80;0.40;;;3.40;99.90;;;;;;5036276;28;20193;-60
2020/12/09 03:46:56;;;;;;;2.70;1.80;;;3.30;99.90;;;;;;5051366;28;20281;-61
2020/12/09 03:49:23;;;;;;;7.57;1.08;;;3.30;99.90;;;;;;5053081;28;20186;-60
2020/12/09 03:51:48;;;;;;;4.13;2.50;;;3.20;99.90;;;;;;5049138;28;20224;-58
2020/12/09 03:54:14;;;;;;;6.13;3.70;;;3.20;99.90;;;;;;5052449;28;20193;-57
2020/12/09 03:56:39;;;;;;;1.80;0.33;;;3.20;99.90;;;;;;5036171;28;20188;-57
2020/12/09 03:59:05;;;;;;;2.67;1.60;;;3.20;99.90;;;;;;5031152;28;20190;-58
2020/12/09 04:01:30;;;;;;;1.70;0.30;;;3.20;99.90;;;;;;5031978;28;20349;-58
2020/12/09 04:03:56;;;;;;;1.70;0.20;;;3.30;99.90;;;;;;5023704;28;20208;-58
2020/12/09 04:06:21;;;;;;;2.47;1.23;;;3.40;99.90;;;;;;5027984;28;20216;-57
2020/12/09 04:08:47;;;;;;;1.70;0.20;;;3.40;99.90;;;;;;5026602;28;20649;-59
2020/12/09 04:11:12;;;;;;;1.70;0.20;;;3.50;99.90;;;;;;5045346;28;20229;-57
2020/12/09 04:13:38;;;;;;;3.90;2.10;;;3.50;99.90;;;;;;5053805;28;20190;-62
2020/12/09 04:16:03;;;;;;;1.70;0.20;;;3.60;99.90;;;;;;5051051;28;20189;-57
2020/12/09 04:18:29;;;;;;;1.70;0.20;;;3.60;99.90;;;;;;5042043;28;20193;-57
2020/12/09 04:20:54;;;;;;;1.70;0.20;;;3.50;99.90;;;;;;5031898;28;20231;-58
2020/12/09 04:23:20;;;;;;;1.90;0.53;;;3.40;99.90;;;;;;5035300;28;20200;-58
2020/12/09 04:25:45;;;;;;;1.70;0.20;;;3.40;99.90;;;;;;5032821;28;20185;-58
2020/12/09 04:28:11;;;;;;;1.70;0.20;;;3.40;99.90;;;;;;5034182;28;20276;-57
2020/12/09 04:30:36;;;;;;;10.00;6.30;;;3.30;99.90;;;;;;5035421;28;20241;-57
2020/12/09 04:33:02;;;;;;;1.70;0.20;;;3.40;99.90;;;;;;5031014;28;20197;-57
2020/12/09 04:35:27;;;;;;;2.83;1.33;;;3.30;99.90;;;;;;5035845;28;20206;-57
2020/12/09 04:37:55;;;;;;;10.73;5.93;;;3.30;99.90;;;;;;5032324;28;20188;-58
2020/12/09 04:40:26;;;;;;;1.70;0.20;;;3.30;99.90;;;;;;5032526;28;20713;-58
2020/12/09 04:42:57;;;;;;;1.80;0.40;;;3.20;99.90;;;;;;5034749;28;20182;-57
2020/12/09 04:45:22;;;;;;;1.77;0.20;;;3.20;99.90;;;;;;5031508;28;20720;-58
2020/12/09 04:47:59;;;;;;;1.70;0.20;;;3.30;99.90;;;;;;5042309;28;20212;-57
2020/12/09 04:50:33;;;;;;;4.00;2.85;;;3.40;99.90;;;;;;5035374;28;20198;-57
2020/12/09 04:53:17;;;;;;;1.70;0.20;;;3.40;99.90;;;;;;5031277;28;20171;-57
2020/12/09 04:55:51;;;;;;;1.70;0.20;;;3.30;99.90;;;;;;5031859;28;20207;-59
2020/12/09 04:58:38;;;;;;;3.75;1.20;;;3.40;99.90;;;;;;5031899;28;20187;-57
2020/12/09 05:01:06;;;;;;;3.75;2.78;;;3.40;99.90;;;;;;5033962;28;20273;-57
2020/12/09 05:03:44;;;;;;;6.95;3.88;;;3.20;99.90;;;;;;5029199;28;20194;-57
2020/12/09 05:06:14;;;;;;;1.70;0.20;;;3.20;99.90;;;;;;5024099;28;20178;-59
2020/12/09 05:08:47;;;;;;;2.90;1.42;;;3.20;99.90;;;;;;5033404;28;20194;-57
2020/12/09 05:11:14;;;;;;;1.70;0.20;;;3.20;99.90;;;;;;5030077;28;20214;-57
2020/12/09 05:13:42;;;;;;;1.70;0.20;;;3.20;99.90;;;;;;5032243;28;20197;-61
2020/12/09 05:16:12;;;;;;;1.70;0.20;;;3.30;99.90;;;;;;5031086;28;20269;-58
2020/12/09 05:18:42;;;;;;;7.30;4.18;;;3.20;99.90;;;;;;5031313;28;20177;-57
2020/12/09 05:21:14;;;;;;;7.05;3.60;;;3.10;99.90;;;;;;5029166;28;20502;-57
2020/12/09 05:23:46;;;;;;;4.28;2.85;;;3.10;99.90;;;;;;5031416;28;20694;-58
2020/12/09 05:26:18;;;;;;;6.25;3.50;;;3.10;99.90;;;;;;5031775;28;20519;-58
2020/12/09 05:28:43;;;;;;;7.55;4.03;;;3.00;99.90;;;;;;5032921;28;20189;-58
2020/12/09 05:31:18;;;;;;;1.70;0.20;;;2.90;99.90;;;;;;5030427;28;20210;-58
2020/12/09 05:33:43;;;;;;;5.65;3.45;;;2.90;99.90;;;;;;5025145;28;20189;-58
2020/12/09 05:36:09;;;;;;;16.03;11.03;;;3.00;99.90;;;;;;5032979;28;20187;-58
2020/12/09 05:38:34;;;;;;;2.37;1.07;;;2.90;99.90;;;;;;5036069;28;20186;-58
2020/12/09 05:41:00;;;;;;;9.67;6.23;;;3.00;99.90;;;;;;5033308;28;20225;-58
2020/12/09 05:43:26;;;;;;;15.90;9.57;;;2.90;99.90;;;;;;5034697;28;20285;-58
2020/12/09 05:45:52;;;;;;;1.80;0.40;;;2.90;99.90;;;;;;5031608;28;20641;-58
2020/12/09 05:48:22;;;;;;;1.90;0.70;;;2.90;99.90;;;;;;5031825;28;20297;-58
2020/12/09 05:50:53;;;;;;;1.80;0.40;;;3.00;99.90;;;;;;5029368;28;20277;-58
2020/12/09 05:53:27;;;;;;;1.70;0.20;;;3.00;99.90;;;;;;5030790;28;20197;-59
2020/12/09 05:56:12;;;;;;;1.73;0.20;;;3.10;99.90;;;;;;5024423;28;20186;-58
2020/12/09 05:58:42;;;;;;;1.70;0.20;;;3.10;99.90;;;;;;5028946;28;20236;-59
2020/12/09 06:01:19;;;;;;;3.00;1.27;;;3.20;99.90;;;;;;5031871;28;20221;-58
2020/12/09 06:03:45;;;;;;;1.70;0.20;;;3.20;99.90;;;;;;5030361;28;20276;-58
2020/12/09 06:06:30;;;;;;;4.18;2.05;;;3.10;99.90;;;;;;5022541;28;20216;-59
2020/12/09 06:08:58;;;;;;;1.77;0.30;;;3.10;99.90;;;;;;5025674;28;20186;-58
2020/12/09 06:11:24;;;;;;;1.90;0.52;;;3.10;99.90;;;;;;5028037;28;20611;-59
2020/12/09 06:13:50;;;;;;;2.92;1.35;;;3.20;99.90;;;;;;5030553;28;20178;-58
2020/12/09 06:16:20;;;;;;;2.38;0.77;;;3.10;99.90;;;;;;5029585;28;20571;-58
2020/12/09 06:18:51;;;;;;;6.47;1.30;;;3.00;99.90;;;;;;5030516;28;20545;-58
2020/12/09 06:21:17;;;;;;;5.22;2.85;;;2.90;99.90;;;;;;5027747;28;20309;-59
2020/12/09 06:23:43;;;;;;;1.70;0.20;;;3.00;99.90;;;;;;5034877;28;20189;-58
2020/12/09 06:26:09;;;;;;;7.78;5.32;;;2.90;99.90;;;;;;5029151;28;20662;-59
2020/12/09 06:28:38;;;;;;;1.70;0.20;;;2.90;99.90;;;;;;5034103;28;20193;-58
2020/12/09 06:31:15;;;;;;;13.25;7.70;;;2.90;99.90;;;;;;5028340;28;20259;-59
2020/12/09 06:33:46;;;;;;;2.85;1.02;;;2.90;99.90;;;;;;5027272;28;20174;-58
2020/12/09 06:36:14;;;;;;;1.80;0.35;;;2.90;99.90;;;;;;5032234;28;20707;-59
2020/12/09 06:38:40;;;;;;;2.55;1.50;;;2.90;99.90;;;;;;5029266;28;20194;-58
2020/12/09 06:41:05;;;;;;;2.90;2.63;;;2.90;99.90;;;;;;5031029;28;20840;-59
2020/12/09 06:43:32;;;;;;;2.27;0.60;;;3.00;99.90;;;;;;5032961;28;20213;-59
2020/12/09 06:45:57;;;;;;;4.75;2.17;;;3.00;99.90;;;;;;5034908;28;20189;-58
2020/12/09 06:48:24;;;;;;;6.17;5.40;;;3.00;99.90;;;;;;5040286;28;20186;-60
2020/12/09 06:50:50;;;;;;;1.73;0.20;;;2.90;99.90;;;;;;5050187;28;20224;-59
2020/12/09 06:53:22;;;;;;;2.20;1.17;;;2.90;99.90;;;;;;5030471;28;20221;-59
2020/12/09 06:55:50;;;;;;;2.72;1.17;;;2.90;99.90;;;;;;5031022;28;20194;-58
2020/12/09 06:58:26;;;;;;;1.70;0.30;;;2.90;99.90;;;;;;5031369;28;20186;-65
2020/12/09 07:00:59;;;;;;;1.70;0.20;;;3.00;99.90;;;;;;5029293;28;20296;-59
2020/12/09 07:03:27;;;;;;;1.73;0.20;;;3.10;99.90;;;;;;5035203;28;20664;-59
2020/12/09 07:05:53;;;;;;;1.90;0.20;;;3.20;99.90;;;;;;5029118;28;20450;-59
2020/12/09 07:08:19;;;;;;;3.88;2.17;;;3.30;99.90;;;;;;5023897;28;20456;-59
2020/12/09 07:10:44;;;;;;;1.70;0.20;;;3.20;99.90;;;;;;5035188;28;20205;-59
2020/12/09 07:13:12;;;;;;;1.90;0.60;;;3.20;99.90;;;;;;5032096;28;20182;-61
2020/12/09 07:15:41;;;;;;;1.80;0.52;;;3.20;99.90;;;;;;5031487;28;20186;-59
2020/12/09 07:18:08;;;;;;;1.70;0.20;;;3.20;99.90;;;;;;5032029;28;20216;-59
2020/12/09 07:20:35;;;;;;;5.38;3.10;;;3.20;99.90;;;;;;5033434;28;20205;-60
2020/12/09 07:23:02;;;;;;;3.95;2.83;;;3.20;99.90;;;;;;5031077;28;20190;-59
2020/12/09 07:25:27;;;;;;;1.70;0.20;;;3.10;99.90;;;;;;5032995;28;20511;-59
2020/12/09 07:27:54;;;;;;;1.70;0.20;;;3.10;99.90;;;;;;5031509;28;20239;-59
2020/12/09 07:30:20;;;;;;;1.80;0.30;;;3.10;99.90;;;;;;5028344;28;20637;-59
2020/12/09 07:32:48;;;;;;;2.40;1.58;;;3.20;99.90;;;;;;5031174;28;20214;-58
2020/12/09 07:35:14;;;;;;;1.70;0.20;;;3.20;99.90;;;;;;5029487;28;20197;-58
2020/12/09 07:37:49;;;;;;;13.70;12.38;;;3.20;99.90;;;;;;5029567;28;20672;-58
2020/12/09 07:40:29;;;;;;;1.70;0.20;;;3.30;99.90;;;;;;5027756;28;20225;-58
2020/12/09 07:43:04;;;;;;;1.70;0.20;;;3.40;99.90;;;;;;5028115;28;20185;-59
2020/12/09 07:45:31;;;;;;;5.95;3.03;;;3.40;99.90;;;;;;5030393;28;20284;-59
2020/12/09 07:48:17;;;;;;;7.50;5.45;;;3.30;99.90;;;;;;5028264;28;20216;-59
2020/12/09 07:50:51;;;;;;;3.00;2.10;;;3.20;99.90;;;;;;5030140;28;20209;-59
2020/12/09 07:53:17;;;;;;;4.47;1.95;;;3.20;99.90;;;;;;5026053;28;20183;-61
2020/12/09 07:55:42;;;;;;;4.57;2.07;;;3.20;99.90;;;;;;5029635;28;20679;-58
2020/12/09 07:58:10;;;;;;;1.87;0.60;;;3.20;99.90;;;;;;5030965;28;20464;-58
2020/12/09 08:00:38;;;;;;;9.85;5.30;;;3.20;99.90;;;;;;5044522;28;20244;-63
2020/12/09 08:03:04;;;;;;;9.93;8.68;;;3.20;99.90;;;;;;5052097;28;20178;-61
2020/12/09 08:05:37;;;;;;;6.68;4.53;;;3.20;99.90;;;;;;5051559;28;20241;-61
2020/12/09 08:08:12;;;;;;;8.98;6.50;;;3.20;99.90;;;;;;5045787;28;20254;-60
2020/12/09 08:10:38;;;;;;;1.70;0.20;;;3.20;99.90;;;;;;5048960;28;20201;-60
2020/12/09 08:13:08;;;;;;;9.05;7.25;;;3.20;99.90;;;;;;5049521;28;20166;-61
2020/12/09 08:15:35;;;;;;;1.70;0.20;;;3.20;99.90;;;;;;5048045;28;20254;-61
2020/12/09 08:18:01;;;;;;;3.00;0.82;;;3.30;99.90;;;;;;5056482;28;20188;-60
2020/12/09 08:20:27;;;;;;;5.13;2.72;;;3.30;99.90;;;;;;5049820;28;20688;-61
2020/12/09 08:22:54;;;;;;;2.97;1.90;;;3.40;99.90;;;;;;5049795;28;20199;-59
2020/12/09 08:25:20;;;;;;;1.92;0.73;;;3.40;99.90;;;;;;5048996;28;20793;-62
2020/12/09 08:28:03;;;;;;;1.77;0.20;;;3.40;99.90;;;;;;5050701;28;20193;-63
2020/12/09 08:30:28;;;;;;;2.10;0.95;;;3.60;99.90;;;;;;5043520;28;20559;-59
2020/12/09 08:33:04;;;;;;;3.30;2.33;;;3.50;99.90;;;;;;5041180;28;20178;-60
2020/12/09 08:35:45;;;;;;;1.70;0.20;;;3.50;99.90;;;;;;5046682;28;20185;-60
2020/12/09 08:38:20;;;;;;;2.83;1.38;;;3.50;99.90;;;;;;5034462;28;20182;-60
2020/12/09 08:40:49;;;;;;;10.98;7.53;;;3.50;99.90;;;;;;5041466;28;20209;-60
2020/12/09 08:43:15;;;;;;;6.28;4.68;;;3.50;99.90;;;;;;5032389;28;20178;-59
2020/12/09 08:45:43;;;;;;;5.40;2.93;;;3.40;99.90;;;;;;5034422;28;20186;-60
2020/12/09 08:48:08;;;;;;;2.33;1.77;;;3.40;99.90;;;;;;5037906;28;20289;-60
2020/12/09 08:50:34;;;;;;;10.83;7.80;;;3.40;99.90;;;;;;5032446;28;20786;-60
2020/12/09 08:52:59;;;;;;;1.70;0.20;;;3.30;99.90;;;;;;5033451;28;20231;-60
2020/12/09 08:55:24;;;;;;;4.37;2.93;;;3.40;99.90;;;;;;5036258;28;20190;-60
2020/12/09 08:57:50;;;;;;;2.00;0.60;;;3.40;99.90;;;;;;5043175;28;20190;-61
2020/12/09 09:00:15;;;;;;;11.00;6.23;;;3.50;99.90;;;;;;5049340;28;20269;-59
2020/12/09 09:02:43;;;;;;;2.57;0.83;;;3.50;99.90;;;;;;5048210;28;20193;-63
2020/12/09 09:05:08;;;;;;;1.80;0.30;;;3.50;99.90;;;;;;5042331;28;20237;-63
2020/12/09 09:07:34;;;;;;;2.17;0.87;;;3.50;99.90;;;;;;5049385;28;20190;-61
2020/12/09 09:09:59;;;;;;;12.37;6.70;;;3.50;99.90;;;;;;5052706;28;20190;-62
2020/12/09 09:12:25;;;;;;;5.67;4.03;;;3.50;99.90;;;;;;5051420;28;20221;-61
2020/12/09 09:14:50;;;;;;;4.73;1.93;;;3.50;99.90;;;;;;5049464;28;20196;-61
2020/12/09 09:17:16;;;;;;;12.37;6.40;;;3.50;99.90;;;;;;5051496;28;20182;-61
2020/12/09 09:19:41;;;;;;;1.70;0.30;;;3.60;99.90;;;;;;5052405;28;20217;-59
2020/12/09 09:22:10;;;;;;;12.87;4.30;;;3.60;99.90;;;;;;5042216;28;20194;-60
2020/12/09 09:24:36;;;;;;;2.70;0.50;;;3.70;99.90;;;;;;5037434;28;20548;-58
2020/12/09 09:27:02;;;;;;;2.15;0.85;;;3.70;99.90;;;;;;5031482;28;20593;-60
2020/12/09 09:29:32;;;;;;;1.80;0.47;;;3.70;99.90;;;;;;5033742;28;20220;-58
2020/12/09 09:31:57;;;;;;;2.83;1.42;;;3.80;99.90;;;;;;5025297;28;20569;-59
2020/12/09 09:34:23;;;;;;;2.10;0.40;;;3.80;99.90;;;;;;5027505;28;20191;-61
2020/12/09 09:36:48;;;;;;;1.80;0.50;;;3.80;99.90;;;;;;5031935;28;20178;-60
2020/12/09 09:39:14;;;;;;;1.70;0.20;;;3.70;99.90;;;;;;5030296;28;20186;-60
2020/12/09 09:41:39;;;;;;;1.70;0.20;;;3.80;99.90;;;;;;5030583;28;20225;-60
2020/12/09 09:44:05;;;;;;;2.40;0.50;;;3.80;99.90;;;;;;5021893;28;20269;-60
2020/12/09 09:46:31;;;;;;;3.00;1.33;;;3.80;99.90;;;;;;5025881;28;20194;-60
2020/12/09 09:48:56;;;;;;;6.60;4.20;;;3.80;99.90;;;;;;5032694;28;20190;-60
2020/12/09 09:51:22;;;;;;;6.17;2.70;;;3.70;99.90;;;;;;5033616;28;20570;-60
2020/12/09 09:53:47;;;;;;;1.70;0.20;;;3.70;99.90;;;;;;5028725;28;20205;-60
2020/12/09 09:56:13;;;;;;;1.80;0.60;;;3.70;99.90;;;;;;5032659;28;20212;-60
2020/12/09 09:58:38;;;;;;;1.90;0.93;;;3.70;99.90;;;;;;5030877;28;20194;-60
2020/12/09 10:01:04;;;;;;;9.33;5.53;;;3.80;99.90;;;;;;5031082;28;20221;-59
2020/12/09 10:03:29;;;;;;;8.17;4.67;;;3.80;99.90;;;;;;5027471;28;20282;-60
2020/12/09 10:05:55;;;;;;;4.00;3.03;;;3.80;99.90;;;;;;5034296;28;20196;-60
2020/12/09 10:08:21;;;;;;;6.13;2.70;;;3.80;99.90;;;;;;5028576;28;20214;-63
2020/12/09 10:10:47;;;;;;;4.07;2.60;;;3.90;99.90;;;;;;5033102;28;20347;-60
2020/12/09 10:13:12;;;;;;;1.97;0.90;;;4.00;99.90;;;;;;5029245;28;20502;-60
2020/12/09 10:15:39;;;;;;;4.93;2.77;;;4.10;99.90;;;;;;5031249;28;20209;-60
2020/12/09 10:18:04;;;;;;;2.80;1.52;;;4.10;99.90;;;;;;5033526;28;20189;-60
2020/12/09 10:20:30;;;;;;;6.40;5.27;;;4.10;99.90;;;;;;5040632;28;20190;-63
2020/12/09 10:22:55;;;;;;;8.77;5.43;;;4.10;99.90;;;;;;5050632;28;20189;-64
2020/12/09 10:25:23;;;;;;;1.80;0.50;;;4.10;99.90;;;;;;5051881;28;20198;-60
2020/12/09 10:27:49;;;;;;;1.80;0.52;;;4.10;99.90;;;;;;5048623;28;20206;-60
2020/12/09 10:30:14;;;;;;;2.00;0.97;;;4.10;99.90;;;;;;5047824;28;20213;-60
2020/12/09 10:32:40;;;;;;;4.63;3.33;;;4.30;99.90;;;;;;5030826;28;20460;-60
2020/12/09 10:35:05;;;;;;;1.77;0.30;;;4.30;99.90;;;;;;5029144;28;20202;-60
2020/12/09 10:37:31;;;;;;;8.10;3.53;;;4.30;99.90;;;;;;5033189;28;20192;-60
2020/12/09 10:39:58;;;;;;;1.70;0.20;;;4.30;99.90;;;;;;5032320;28;20221;-60
2020/12/09 10:42:24;;;;;;;2.22;0.98;;;4.30;99.90;;;;;;5029819;28;20451;-60
2020/12/09 10:44:50;;;;;;;2.33;1.43;;;4.30;99.90;;;;;;5049775;28;20206;-60
2020/12/09 10:47:16;;;;;;;1.90;0.70;;;4.40;99.90;;;;;;5052103;28;20194;-62
2020/12/09 10:49:44;;;;;;;1.70;0.20;;;4.40;99.90;;;;;;5046929;28;20197;-60
2020/12/09 10:52:11;;;;;;;1.70;0.20;;;4.40;99.90;;;;;;5043554;28;20205;-60
2020/12/09 10:54:37;;;;;;;2.00;0.82;;;4.50;99.90;;;;;;5040664;28;20184;-60
2020/12/09 10:57:03;;;;;;;1.73;0.20;;;4.50;99.90;;;;;;5031544;28;20191;-60
2020/12/09 10:59:30;;;;;;;3.10;1.38;;;4.60;99.90;;;;;;5031589;28;20194;-60
2020/12/09 11:01:55;;;;;;;1.70;0.30;;;4.60;99.90;;;;;;5025348;28;20252;-60
2020/12/09 11:04:22;;;;;;;16.47;8.40;;;4.60;99.90;;;;;;5025062;28;20209;-61
2020/12/09 11:06:47;;;;;;;15.57;7.22;;;4.60;99.90;;;;;;5028164;28;20186;-60
2020/12/09 11:09:13;;;;;;;2.67;1.67;;;4.50;99.90;;;;;;5024414;28;20201;-60
2020/12/09 11:11:45;;;;;;;2.20;0.80;;;4.50;99.90;;;;;;5030627;28;20680;-60
2020/12/09 11:14:12;;;;;;;3.65;2.33;;;4.50;99.90;;;;;;5028176;28;20190;-60
2020/12/09 11:16:37;;;;;;;10.13;6.03;;;4.50;99.90;;;;;;5025512;28;20260;-61
2020/12/09 11:19:03;;;;;;;11.80;4.43;;;4.50;99.90;;;;;;5033067;28;20185;-61
2020/12/09 11:21:29;;;;;;;12.47;7.00;;;4.50;99.90;;;;;;5029819;28;20564;-60
2020/12/09 11:23:54;;;;;;;11.67;6.90;;;4.60;99.90;;;;;;5025962;28;20583;-60
2020/12/09 11:26:21;;;;;;;2.00;0.50;;;4.50;99.90;;;;;;5031259;28;20182;-63
2020/12/09 11:28:48;;;;;;;2.30;1.00;;;4.60;99.90;;;;;;5025165;28;20531;-58
2020/12/09 11:31:18;;;;;;;2.83;1.08;;;4.60;99.90;;;;;;5028259;28;20471;-60
2020/12/09 11:33:43;;;;;;;1.70;0.20;;;4.60;99.90;;;;;;5028158;28;20256;-59
2020/12/09 11:36:09;;;;;;;2.90;1.43;;;4.60;99.90;;;;;;5026608;28;20318;-59
2020/12/09 11:38:34;;;;;;;4.37;1.53;;;4.60;99.90;;;;;;5030151;28;20194;-59
2020/12/09 11:41:00;;;;;;;2.63;1.90;;;4.60;99.90;;;;;;5033340;28;20206;-60
2020/12/09 11:43:27;;;;;;;1.70;0.20;;;4.70;99.90;;;;;;5027211;28;20190;-59
2020/12/09 11:45:53;;;;;;;10.48;5.85;;;4.70;99.90;;;;;;5029432;28;20197;-60
2020/12/09 11:48:19;;;;;;;2.10;1.10;;;4.70;99.90;;;;;;5030662;28;20182;-60
2020/12/09 11:50:45;;;;;;;1.70;0.20;;;4.70;99.90;;;;;;5026415;28;20237;-59
2020/12/09 11:53:11;;;;;;;6.47;3.63;;;4.70;99.90;;;;;;5030033;28;20178;-59
2020/12/09 11:55:36;;;;;;;19.80;12.30;;;4.60;99.90;;;;;;5028129;28;20315;-60
2020/12/09 11:58:03;;;;;;;4.80;3.40;;;4.60;99.90;;;;;;5028368;28;20661;-59
2020/12/09 12:00:29;;;;;;;1.70;0.20;;;4.50;99.90;;;;;;5025458;28;20289;-59
2020/12/09 12:02:55;;;;;;;3.67;2.80;;;4.60;99.90;;;;;;5019558;28;20210;-59
2020/12/09 12:05:23;;;;;;;2.20;0.67;;;4.70;99.90;;;;;;5024740;28;20212;-59
2020/12/09 12:07:49;;;;;;;9.77;6.82;;;4.70;99.90;;;;;;5031446;28;20190;-59
2020/12/09 12:10:15;;;;;;;7.13;3.30;;;4.70;99.90;;;;;;5028165;28;20210;-59
2020/12/09 12:12:40;;;;;;;5.00;1.57;;;4.60;99.90;;;;;;5025628;28;20240;-59
2020/12/09 12:15:07;;;;;;;1.70;0.20;;;4.60;99.90;;;;;;5023375;28;20192;-60
2020/12/09 12:17:33;;;;;;;4.40;2.42;;;4.70;99.90;;;;;;5027108;28;20605;-60
2020/12/09 12:19:58;;;;;;;1.70;0.30;;;4.80;99.90;;;;;;5028137;28;20178;-60
2020/12/09 12:22:24;;;;;;;4.73;4.33;;;4.80;99.90;;;;;;5025261;28;21074;-60
2020/12/09 12:24:49;;;;;;;1.70;0.20;;;4.90;99.90;;;;;;5028901;28;20549;-59
2020/12/09 12:27:15;;;;;;;1.70;0.20;;;4.90;99.90;;;;;;5028322;28;20225;-60
2020/12/09 12:29:40;;;;;;;2.27;1.20;;;4.90;99.90;;;;;;5029943;28;20549;-60
2020/12/09 12:32:06;;;;;;;6.10;5.70;;;4.90;99.90;;;;;;5025246;28;20205;-58
2020/12/09 12:34:31;;;;;;;6.00;3.17;;;4.80;99.90;;;;;;5031470;28;20186;-58
2020/12/09 12:36:58;;;;;;;1.70;0.30;;;4.80;99.90;;;;;;5025762;28;20568;-59
2020/12/09 12:39:23;;;;;;;15.32;7.03;;;4.80;99.90;;;;;;5028171;28;20182;-60
2020/12/09 12:41:49;;;;;;;1.70;0.20;;;4.80;99.90;;;;;;5020357;28;20217;-59
2020/12/09 12:44:14;;;;;;;12.97;5.67;;;4.80;99.90;;;;;;5025758;28;20202;-60
2020/12/09 12:46:40;;;;;;;11.30;6.67;;;4.80;99.90;;;;;;5027567;28;20193;-59
2020/12/09 12:49:05;;;;;;;7.53;3.90;;;4.70;99.90;;;;;;5034716;28;20730;-60
2020/12/09 12:51:31;;;;;;;8.67;4.67;;;4.70;99.90;;;;;;5031321;28;20249;-58
2020/12/09 12:53:57;;;;;;;4.37;2.67;;;4.70;99.90;;;;;;5031192;28;20516;-59